createdAt,value
2018-06-11T00:00:41.012Z,27.73
2018-06-11T00:01:47.654Z,26.77
2018-06-11T00:02:53.590Z,26.30
2018-06-11T00:03:59.521Z,26.45
2018-06-11T00:05:05.562Z,26.70
2018-06-11T00:06:11.511Z,26.60
2018-06-11T00:07:17.452Z,27.17
2018-06-11T00:08:23.397Z,26.35
2018-06-11T00:09:29.497Z,27.15
2018-06-11T00:10:35.411Z,27.30
2018-06-11T00:11:41.354Z,29.05
2018-06-11T00:12:47.284Z,28.38
2018-06-11T00:13:53.202Z,29.07
2018-06-11T00:14:59.199Z,27.65
2018-06-11T00:16:05.226Z,28.55
2018-06-11T00:17:11.147Z,29.75
2018-06-11T00:18:16.837Z,28.02
2018-06-11T00:19:22.684Z,28.12
2018-06-11T00:20:28.635Z,29.65
2018-06-11T00:21:34.619Z,27.02
2018-06-11T00:22:40.544Z,28.50
2018-06-11T00:23:46.479Z,28.92
2018-06-11T00:24:52.422Z,27.50
2018-06-11T00:25:58.398Z,28.62
2018-06-11T00:27:04.355Z,29.87
2018-06-11T00:28:10.567Z,29.00
2018-06-11T00:29:16.499Z,28.55
2018-06-11T00:30:22.458Z,29.37
2018-06-11T00:31:28.395Z,28.20
2018-06-11T00:32:34.379Z,29.92
2018-06-11T00:33:40.347Z,29.37
2018-06-11T00:34:46.270Z,30.00
2018-06-11T00:35:52.594Z,30.23
2018-06-11T00:36:58.594Z,31.45
2018-06-11T00:38:04.594Z,29.63
2018-06-11T00:39:10.747Z,30.68
2018-06-11T00:40:16.721Z,29.48
2018-06-11T00:41:22.317Z,31.87
2018-06-11T00:42:28.170Z,30.52
2018-06-11T00:43:34.134Z,32.20
2018-06-11T00:44:40.059Z,30.92
2018-06-11T00:45:46.070Z,31.07
2018-06-11T00:46:52.001Z,29.48
2018-06-11T00:47:57.613Z,30.20
2018-06-11T00:49:03.286Z,30.75
2018-06-11T00:50:09.211Z,30.12
2018-06-11T00:51:15.142Z,30.48
2018-06-11T00:52:21.070Z,30.82
2018-06-11T00:53:27.424Z,31.93
2018-06-11T00:54:33.410Z,30.60
2018-06-11T00:55:56.113Z,29.95
2018-06-11T00:57:02.327Z,31.85
2018-06-11T00:58:08.296Z,30.72
2018-06-11T00:59:14.250Z,30.85
2018-06-11T01:00:20.226Z,31.93
2018-06-11T01:01:26.175Z,31.93
2018-06-11T01:02:32.138Z,32.73
2018-06-11T01:03:38.067Z,33.40
2018-06-11T01:04:44.012Z,31.45
2018-06-11T01:05:49.974Z,31.23
2018-06-11T01:06:55.918Z,31.00
2018-06-11T01:08:01.891Z,31.57
2018-06-11T01:09:09.041Z,31.15
2018-06-11T01:10:14.991Z,31.07
2018-06-11T01:11:21.070Z,29.72
2018-06-11T01:12:27.530Z,33.10
2018-06-11T01:13:33.958Z,31.90
2018-06-11T01:14:39.897Z,33.50
2018-06-11T01:15:45.856Z,29.20
2018-06-11T01:16:52.683Z,31.23
2018-06-11T01:17:58.611Z,31.75
2018-06-11T01:19:04.550Z,30.62
2018-06-11T01:20:10.470Z,31.37
2018-06-11T01:21:16.208Z,31.77
2018-06-11T01:22:22.211Z,32.50
2018-06-11T01:23:28.118Z,31.68
2018-06-11T01:24:34.066Z,31.27
2018-06-11T01:25:40.017Z,32.40
2018-06-11T01:26:46.065Z,31.02
2018-06-11T01:27:52.051Z,30.60
2018-06-11T01:28:58.052Z,29.75
2018-06-11T01:30:04.114Z,30.85
2018-06-11T01:31:10.120Z,30.60
2018-06-11T01:32:16.099Z,31.17
2018-06-11T01:33:22.062Z,29.67
2018-06-11T01:34:27.868Z,29.30
2018-06-11T01:35:33.803Z,29.30
2018-06-11T01:36:39.779Z,29.52
2018-06-11T01:37:45.818Z,30.70
2018-06-11T01:38:51.775Z,29.63
2018-06-11T01:39:57.578Z,30.00
2018-06-11T01:41:03.544Z,29.55
2018-06-11T01:42:09.164Z,31.33
2018-06-11T01:43:14.998Z,31.97
2018-06-11T01:44:20.973Z,28.70
2018-06-11T01:45:26.903Z,31.15
2018-06-11T01:46:32.831Z,30.10
2018-06-11T01:47:38.810Z,27.48
2018-06-11T01:48:44.742Z,29.63
2018-06-11T01:49:51.042Z,29.92
2018-06-11T01:50:56.984Z,28.77
2018-06-11T01:52:03.188Z,29.72
2018-06-11T01:53:08.966Z,28.92
2018-06-11T01:54:14.882Z,29.42
2018-06-11T01:55:20.899Z,30.43
2018-06-11T01:56:26.998Z,28.73
2018-06-11T01:57:32.989Z,28.38
2018-06-11T01:58:39.026Z,28.40
2018-06-11T01:59:44.962Z,28.17
2018-06-11T02:00:51.376Z,28.00
2018-06-11T02:01:57.175Z,27.13
2018-06-11T02:03:03.007Z,29.20
2018-06-11T02:04:08.931Z,27.32
2018-06-11T02:05:14.851Z,27.70
2018-06-11T02:06:20.854Z,28.45
2018-06-11T02:07:26.786Z,29.37
2018-06-11T02:08:32.711Z,28.07
2018-06-11T02:09:38.862Z,27.37
2018-06-11T02:10:44.838Z,28.42
2018-06-11T02:11:51.035Z,27.93
2018-06-11T02:12:56.986Z,28.98
2018-06-11T02:14:03.236Z,29.57
2018-06-11T02:15:09.185Z,30.32
2018-06-11T02:16:15.125Z,29.72
2018-06-11T02:17:20.855Z,29.37
2018-06-11T02:18:26.714Z,28.77
2018-06-11T02:19:32.663Z,29.60
2018-06-11T02:20:38.579Z,28.80
2018-06-11T02:21:44.510Z,29.10
2018-06-11T02:22:50.505Z,29.27
2018-06-11T02:23:56.114Z,28.35
2018-06-11T02:25:01.979Z,28.75
2018-06-11T02:26:07.938Z,28.85
2018-06-11T02:27:13.535Z,28.83
2018-06-11T02:28:19.399Z,29.52
2018-06-11T02:29:25.350Z,30.15
2018-06-11T02:30:31.014Z,31.17
2018-06-11T02:31:36.834Z,28.95
2018-06-11T02:32:42.429Z,29.25
2018-06-11T02:33:48.305Z,29.27
2018-06-11T02:34:54.258Z,28.30
2018-06-11T02:35:59.850Z,29.85
2018-06-11T02:37:05.735Z,28.52
2018-06-11T02:38:11.669Z,28.12
2018-06-11T02:39:17.688Z,27.05
2018-06-11T02:40:23.613Z,27.50
2018-06-11T02:41:29.618Z,28.20
2018-06-11T02:42:35.249Z,28.47
2018-06-11T02:43:41.102Z,28.90
2018-06-11T02:44:47.194Z,26.35
2018-06-11T02:45:53.118Z,28.83
2018-06-11T02:46:59.076Z,28.30
2018-06-11T02:48:05.054Z,27.87
2018-06-11T02:49:11.008Z,26.05
2018-06-11T02:50:16.985Z,26.82
2018-06-11T02:51:22.938Z,28.67
2018-06-11T02:52:28.871Z,26.75
2018-06-11T02:53:34.884Z,25.45
2018-06-11T02:54:40.867Z,27.48
2018-06-11T02:55:46.818Z,28.75
2018-06-11T02:56:52.757Z,25.85
2018-06-11T02:57:58.710Z,27.48
2018-06-11T02:59:04.686Z,27.93
2018-06-11T03:00:10.615Z,28.00
2018-06-11T03:01:16.333Z,27.70
2018-06-11T03:02:22.503Z,27.40
2018-06-11T03:03:28.146Z,29.00
2018-06-11T03:04:33.994Z,28.87
2018-06-11T03:05:39.943Z,26.20
2018-06-11T03:06:45.931Z,27.67
2018-06-11T03:07:51.875Z,26.17
2018-06-11T03:08:57.831Z,27.30
2018-06-11T03:10:03.965Z,26.87
2018-06-11T03:11:09.926Z,25.92
2018-06-11T03:12:15.894Z,26.27
2018-06-11T03:13:21.833Z,26.42
2018-06-11T03:14:27.757Z,25.92
2018-06-11T03:15:33.726Z,26.40
2018-06-11T03:16:39.945Z,27.00
2018-06-11T03:17:45.911Z,28.15
2018-06-11T03:18:51.880Z,27.22
2018-06-11T03:19:57.479Z,27.65
2018-06-11T03:21:03.392Z,29.52
2018-06-11T03:22:09.478Z,26.12
2018-06-11T03:23:15.427Z,27.85
2018-06-11T03:24:21.390Z,29.52
2018-06-11T03:25:27.345Z,26.90
2018-06-11T03:26:33.275Z,25.65
2018-06-11T03:27:39.181Z,25.60
2018-06-11T03:28:45.134Z,26.50
2018-06-11T03:29:51.066Z,25.90
2018-06-11T03:30:57.011Z,26.23
2018-06-11T03:32:03.540Z,25.95
2018-06-11T03:33:09.491Z,28.10
2018-06-11T03:34:15.494Z,29.18
2018-06-11T03:35:21.299Z,26.25
2018-06-11T03:36:27.232Z,26.62
2018-06-11T03:37:33.145Z,27.48
2018-06-11T03:38:39.070Z,26.23
2018-06-11T03:39:45.059Z,26.33
2018-06-11T03:40:51.004Z,27.02
2018-06-11T03:41:56.947Z,28.05
2018-06-11T03:43:03.481Z,25.95
2018-06-11T03:44:09.466Z,26.07
2018-06-11T03:45:15.444Z,26.25
2018-06-11T03:46:21.531Z,27.02
2018-06-11T03:47:27.467Z,26.77
2018-06-11T03:48:33.403Z,25.27
2018-06-11T03:49:39.334Z,25.95
2018-06-11T03:50:45.287Z,26.73
2018-06-11T03:51:51.216Z,27.07
2018-06-11T03:52:57.166Z,26.93
2018-06-11T03:54:03.111Z,26.77
2018-06-11T03:55:09.076Z,25.43
2018-06-11T03:56:15.601Z,24.80
2018-06-11T03:57:21.283Z,25.00
2018-06-11T03:58:27.140Z,24.35
2018-06-11T03:59:33.089Z,26.68
2018-06-11T04:00:39.029Z,24.32
2018-06-11T04:01:44.998Z,24.85
2018-06-11T04:02:50.979Z,24.95
2018-06-11T04:03:56.935Z,23.00
2018-06-11T04:05:02.886Z,25.25
2018-06-11T04:06:08.863Z,24.87
2018-06-11T04:07:15.171Z,24.63
2018-06-11T04:08:21.125Z,25.05
2018-06-11T04:09:28.317Z,27.27
2018-06-11T04:10:34.344Z,26.70
2018-06-11T04:11:42.280Z,27.77
2018-06-11T04:12:48.255Z,24.90
2018-06-11T04:13:54.202Z,23.67
2018-06-11T04:15:00.129Z,25.15
2018-06-11T04:16:06.282Z,25.27
2018-06-11T04:17:12.247Z,25.23
2018-06-11T04:18:19.342Z,24.20
2018-06-11T04:19:25.459Z,24.20
2018-06-11T04:20:32.144Z,26.30
2018-06-11T04:21:38.150Z,25.55
2018-06-11T04:22:44.216Z,24.43
2018-06-11T04:23:50.158Z,25.48
2018-06-11T04:24:56.109Z,25.70
2018-06-11T04:26:02.035Z,25.72
2018-06-11T04:27:08.391Z,23.73
2018-06-11T04:28:14.306Z,26.62
2018-06-11T04:29:20.252Z,25.08
2018-06-11T04:30:26.191Z,25.35
2018-06-11T04:31:32.150Z,24.55
2018-06-11T04:32:38.783Z,22.98
2018-06-11T04:33:44.768Z,24.57
2018-06-11T04:34:50.730Z,25.50
2018-06-11T04:35:56.702Z,24.05
2018-06-11T04:37:03.011Z,24.85
2018-06-11T04:38:09.704Z,29.02
2018-06-11T04:39:15.624Z,23.95
2018-06-11T04:40:21.608Z,24.52
2018-06-11T04:41:27.548Z,24.12
2018-06-11T04:42:33.443Z,25.08
2018-06-11T04:43:39.307Z,22.85
2018-06-11T04:44:45.238Z,24.70
2018-06-11T04:45:51.303Z,24.50
2018-06-11T04:46:57.300Z,25.08
2018-06-11T04:48:03.273Z,23.77
2018-06-11T04:49:09.517Z,24.40
2018-06-11T04:50:15.469Z,24.65
2018-06-11T04:51:21.475Z,25.27
2018-06-11T04:52:27.441Z,23.50
2018-06-11T04:53:33.676Z,22.73
2018-06-11T04:54:39.522Z,23.65
2018-06-11T04:55:45.498Z,24.60
2018-06-11T04:56:51.470Z,24.18
2018-06-11T04:57:57.422Z,25.12
2018-06-11T04:59:03.387Z,25.55
2018-06-11T05:00:09.366Z,26.60
2018-06-11T05:01:15.441Z,23.20
2018-06-11T05:02:21.432Z,25.60
2018-06-11T05:03:28.337Z,24.52
2018-06-11T05:04:34.405Z,25.02
2018-06-11T05:05:40.263Z,23.60
2018-06-11T05:06:46.831Z,23.60
2018-06-11T05:07:52.824Z,24.15
2018-06-11T05:08:58.775Z,25.02
2018-06-11T05:10:04.846Z,26.25
2018-06-11T05:11:10.955Z,24.32
2018-06-11T05:12:16.914Z,25.90
2018-06-11T05:13:22.891Z,24.98
2018-06-11T05:14:28.834Z,25.85
2018-06-11T05:15:34.877Z,25.43
2018-06-11T05:16:40.489Z,24.12
2018-06-11T05:17:46.020Z,24.63
2018-06-11T05:18:51.876Z,24.47
2018-06-11T05:19:57.826Z,24.65
2018-06-11T05:21:03.774Z,23.80
2018-06-11T05:22:09.716Z,24.67
2018-06-11T05:23:15.308Z,25.23
2018-06-11T05:24:21.166Z,24.43
2018-06-11T05:25:27.106Z,25.37
2018-06-11T05:26:33.038Z,23.95
2018-06-11T05:27:39.203Z,24.18
2018-06-11T05:28:45.232Z,24.37
2018-06-11T05:29:51.412Z,24.32
2018-06-11T05:30:57.358Z,24.20
2018-06-11T05:32:03.575Z,26.40
2018-06-11T05:33:11.173Z,24.55
2018-06-11T05:34:17.156Z,24.55
2018-06-11T05:35:23.122Z,25.08
2018-06-11T05:36:29.230Z,25.40
2018-06-11T05:37:35.212Z,25.68
2018-06-11T05:38:41.183Z,25.57
2018-06-11T05:39:47.138Z,22.85
2018-06-11T05:40:53.120Z,24.45
2018-06-11T05:41:59.041Z,26.33
2018-06-11T05:43:05.475Z,25.57
2018-06-11T05:44:11.459Z,24.80
2018-06-11T05:45:17.402Z,25.65
2018-06-11T05:46:23.370Z,25.55
2018-06-11T05:47:29.348Z,26.70
2018-06-11T05:48:35.266Z,25.57
2018-06-11T05:49:41.197Z,27.10
2018-06-11T05:50:47.143Z,28.17
2018-06-11T05:51:53.111Z,28.27
2018-06-11T05:52:59.197Z,29.80
2018-06-11T05:54:05.203Z,29.48
2018-06-11T05:55:11.159Z,27.35
2018-06-11T05:56:17.147Z,27.93
2018-06-11T05:57:23.118Z,29.75
2018-06-11T05:58:29.051Z,31.73
2018-06-11T05:59:35.078Z,29.85
2018-06-11T06:00:41.043Z,26.73
2018-06-11T06:01:47.054Z,30.62
2018-06-11T06:02:53.019Z,27.30
2018-06-11T06:03:58.999Z,29.50
2018-06-11T06:05:04.999Z,30.55
2018-06-11T06:06:10.984Z,27.65
2018-06-11T06:07:16.907Z,29.07
2018-06-11T06:08:22.853Z,28.32
2018-06-11T06:09:28.807Z,28.60
2018-06-11T06:10:34.751Z,27.05
2018-06-11T06:11:40.694Z,24.23
2018-06-11T06:12:46.611Z,26.42
2018-06-11T06:13:52.550Z,25.30
2018-06-11T06:14:58.485Z,23.85
2018-06-11T06:16:04.461Z,25.02
2018-06-11T06:17:10.426Z,26.68
2018-06-11T06:18:16.415Z,25.10
2018-06-11T06:19:22.403Z,24.23
2018-06-11T06:20:28.459Z,23.87
2018-06-11T06:21:34.415Z,24.85
2018-06-11T06:22:40.430Z,28.07
2018-06-11T06:23:46.405Z,27.05
2018-06-11T06:24:52.363Z,24.25
2018-06-11T06:25:58.311Z,25.37
2018-06-11T06:27:04.279Z,25.95
2018-06-11T06:28:10.207Z,26.62
2018-06-11T06:29:17.879Z,24.90
2018-06-11T06:30:24.937Z,26.05
2018-06-11T06:31:32.510Z,26.02
2018-06-11T06:32:38.115Z,24.25
2018-06-11T06:33:44.007Z,25.15
2018-06-11T06:34:50.085Z,24.18
2018-06-11T06:35:56.222Z,27.05
2018-06-11T06:37:02.183Z,25.97
2018-06-11T06:38:08.243Z,25.20
2018-06-11T06:39:14.656Z,24.82
2018-06-11T06:40:20.802Z,24.98
2018-06-11T06:41:26.791Z,27.30
2018-06-11T06:42:33.230Z,25.25
2018-06-11T06:43:39.230Z,25.37
2018-06-11T06:44:45.384Z,26.10
2018-06-11T06:45:51.407Z,24.05
2018-06-11T06:46:57.558Z,25.48
2018-06-11T06:48:03.657Z,26.35
2018-06-11T06:49:09.796Z,23.50
2018-06-11T06:50:15.835Z,24.67
2018-06-11T06:51:21.763Z,24.10
2018-06-11T06:52:27.428Z,23.65
2018-06-11T06:53:33.319Z,22.55
2018-06-11T06:54:39.469Z,25.43
2018-06-11T06:55:45.392Z,23.85
2018-06-11T06:56:51.847Z,23.45
2018-06-11T06:57:57.807Z,25.43
2018-06-11T06:59:03.734Z,25.05
2018-06-11T07:00:09.682Z,24.12
2018-06-11T07:01:15.834Z,25.45
2018-06-11T07:02:21.847Z,24.70
2018-06-11T07:03:27.796Z,24.67
2018-06-11T07:04:33.740Z,25.05
2018-06-11T07:05:39.707Z,23.40
2018-06-11T07:06:45.699Z,24.50
2018-06-11T07:07:52.182Z,25.00
2018-06-11T07:08:58.224Z,25.85
2018-06-11T07:10:04.325Z,25.77
2018-06-11T07:11:10.415Z,26.77
2018-06-11T07:12:16.407Z,28.57
2018-06-11T07:13:22.363Z,26.10
2018-06-11T07:14:28.318Z,24.82
2018-06-11T07:15:34.307Z,26.93
2018-06-11T07:16:40.306Z,25.90
2018-06-11T07:17:46.275Z,27.37
2018-06-11T07:18:52.898Z,26.17
2018-06-11T07:19:58.946Z,24.27
2018-06-11T07:21:04.916Z,27.17
2018-06-11T07:22:10.871Z,26.57
2018-06-11T07:23:16.903Z,26.27
2018-06-11T07:24:23.325Z,25.57
2018-06-11T07:25:29.359Z,24.18
2018-06-11T07:26:35.475Z,25.43
2018-06-11T07:27:41.803Z,25.45
2018-06-11T07:28:48.012Z,26.55
2018-06-11T07:29:54.095Z,25.77
2018-06-11T07:31:00.456Z,24.92
2018-06-11T07:32:06.229Z,27.25
2018-06-11T07:33:12.115Z,27.77
2018-06-11T07:34:18.095Z,26.05
2018-06-11T07:35:24.451Z,30.00
2018-06-11T07:36:30.617Z,29.45
2018-06-11T07:37:36.607Z,32.70
2018-06-11T07:38:42.532Z,29.55
2018-06-11T07:39:48.489Z,29.30
2018-06-11T07:40:54.750Z,30.02
2018-06-11T07:42:01.832Z,28.73
2018-06-11T07:43:09.518Z,28.30
2018-06-11T07:44:15.733Z,29.55
2018-06-11T07:45:22.054Z,32.20
2018-06-11T07:46:28.009Z,28.07
2018-06-11T07:47:34.064Z,26.95
2018-06-11T07:48:39.731Z,29.72
2018-06-11T07:49:45.779Z,27.70
2018-06-11T07:50:51.757Z,26.57
2018-06-11T07:51:57.915Z,27.58
2018-06-11T07:53:03.901Z,27.37
2018-06-11T07:54:09.841Z,27.62
2018-06-11T07:55:15.810Z,27.55
2018-06-11T07:56:21.785Z,26.37
2018-06-11T07:57:27.699Z,29.07
2018-06-11T07:58:33.458Z,27.42
2018-06-11T07:59:39.417Z,27.35
2018-06-11T08:00:45.381Z,29.12
2018-06-11T08:01:51.337Z,26.85
2018-06-11T08:02:57.313Z,29.90
2018-06-11T08:04:03.465Z,29.82
2018-06-11T08:05:09.410Z,24.65
2018-06-11T08:06:15.409Z,25.77
2018-06-11T08:07:21.384Z,26.45
2018-06-11T08:08:27.315Z,25.10
2018-06-11T08:09:33.323Z,25.15
2018-06-11T08:10:39.320Z,26.37
2018-06-11T08:11:45.282Z,24.20
2018-06-11T08:12:51.243Z,27.07
2018-06-11T08:13:57.659Z,24.98
2018-06-11T08:15:03.653Z,25.72
2018-06-11T08:16:09.969Z,24.45
2018-06-11T08:17:15.918Z,24.15
2018-06-11T08:18:21.943Z,23.65
2018-06-11T08:19:27.935Z,25.90
2018-06-11T08:20:34.007Z,24.92
2018-06-11T08:21:40.010Z,25.25
2018-06-11T08:22:46.023Z,24.95
2018-06-11T08:23:51.955Z,27.00
2018-06-11T08:24:57.938Z,22.90
2018-06-11T08:26:03.917Z,23.83
2018-06-11T08:27:09.855Z,23.30
2018-06-11T08:28:15.801Z,24.12
2018-06-11T08:29:21.771Z,24.18
2018-06-11T08:30:27.694Z,24.00
2018-06-11T08:31:33.654Z,25.82
2018-06-11T08:32:39.606Z,23.15
2018-06-11T08:33:45.627Z,22.30
2018-06-11T08:34:51.729Z,24.27
2018-06-11T08:35:57.934Z,22.65
2018-06-11T08:37:04.190Z,22.42
2018-06-11T08:38:10.205Z,22.70
2018-06-11T08:39:16.188Z,21.85
2018-06-11T08:40:22.130Z,24.12
2018-06-11T08:41:28.109Z,22.45
2018-06-11T08:42:34.085Z,22.95
2018-06-11T08:43:40.070Z,23.77
2018-06-11T08:44:46.015Z,23.25
2018-06-11T08:45:51.959Z,22.87
2018-06-11T08:46:57.921Z,23.38
2018-06-11T08:48:03.903Z,23.42
2018-06-11T08:49:09.873Z,24.05
2018-06-11T08:50:15.829Z,23.77
2018-06-11T08:51:21.770Z,23.62
2018-06-11T08:52:27.854Z,24.05
2018-06-11T08:53:33.839Z,23.45
2018-06-11T08:54:39.778Z,23.50
2018-06-11T08:55:45.719Z,25.05
2018-06-11T08:56:51.686Z,25.50
2018-06-11T08:57:57.644Z,24.82
2018-06-11T08:59:03.651Z,23.32
2018-06-11T09:00:10.094Z,25.05
2018-06-11T09:01:16.272Z,23.87
2018-06-11T09:02:22.343Z,24.18
2018-06-11T09:03:28.667Z,24.52
2018-06-11T09:04:34.727Z,23.38
2018-06-11T09:05:40.704Z,23.35
2018-06-11T09:06:46.910Z,24.50
2018-06-11T09:07:52.879Z,26.30
2018-06-11T09:08:59.214Z,24.70
2018-06-11T09:10:05.236Z,23.45
2018-06-11T09:11:11.259Z,25.65
2018-06-11T09:12:17.235Z,25.50
2018-06-11T09:13:23.197Z,23.30
2018-06-11T09:14:29.135Z,25.37
2018-06-11T09:15:35.183Z,28.32
2018-06-11T09:16:41.120Z,24.05
2018-06-11T09:17:47.058Z,24.63
2018-06-11T09:18:53.035Z,24.27
2018-06-11T09:19:58.995Z,25.40
2018-06-11T09:21:04.991Z,23.62
2018-06-11T09:22:10.990Z,24.55
2018-06-11T09:23:16.942Z,22.85
2018-06-11T09:24:23.042Z,22.07
2018-06-11T09:25:29.002Z,20.02
2018-06-11T09:26:35.006Z,22.93
2018-06-11T09:27:41.314Z,22.55
2018-06-11T09:28:47.438Z,25.77
2018-06-11T09:29:53.405Z,23.90
2018-06-11T09:30:59.424Z,22.87
2018-06-11T09:32:05.559Z,21.23
2018-06-11T09:33:11.629Z,23.18
2018-06-11T09:34:18.446Z,21.95
2018-06-11T09:35:24.885Z,22.85
2018-06-11T09:36:30.818Z,22.32
2018-06-11T09:37:37.176Z,21.10
2018-06-11T09:38:43.117Z,22.73
2018-06-11T09:39:49.054Z,22.40
2018-06-11T09:40:54.998Z,23.85
2018-06-11T09:42:00.936Z,21.52
2018-06-11T09:43:06.963Z,22.87
2018-06-11T09:44:13.712Z,22.48
2018-06-11T09:45:19.727Z,22.10
2018-06-11T09:46:25.714Z,21.57
2018-06-11T09:47:31.647Z,20.95
2018-06-11T09:48:37.621Z,22.20
2018-06-11T09:49:43.237Z,19.32
2018-06-11T09:50:49.210Z,19.57
2018-06-11T09:51:55.143Z,22.87
2018-06-11T09:53:01.100Z,19.02
2018-06-11T09:54:07.056Z,19.25
2018-06-11T09:55:13.015Z,17.25
2018-06-11T09:56:19.006Z,16.50
2018-06-11T09:57:24.979Z,16.02
2018-06-11T09:58:31.804Z,17.82
2018-06-11T09:59:39.436Z,17.05
2018-06-11T10:00:46.984Z,17.32
2018-06-11T10:01:53.727Z,16.85
2018-06-11T10:03:00.196Z,16.93
2018-06-11T10:04:06.837Z,17.92
2018-06-11T10:05:12.841Z,17.25
2018-06-11T10:06:19.530Z,16.15
2018-06-11T10:07:25.863Z,17.67
2018-06-11T10:08:32.358Z,16.42
2018-06-11T10:09:38.851Z,16.48
2018-06-11T10:10:45.326Z,17.55
2018-06-11T10:11:51.799Z,16.82
2018-06-11T10:12:58.164Z,18.00
2018-06-11T10:14:05.348Z,18.00
2018-06-11T10:15:11.818Z,17.45
2018-06-11T10:16:18.984Z,16.50
2018-06-11T10:17:25.291Z,17.15
2018-06-11T10:18:36.436Z,17.05
2018-06-11T10:19:42.563Z,18.37
2018-06-11T10:20:49.242Z,19.37
2018-06-11T10:21:56.810Z,22.40
2018-06-11T10:23:03.606Z,16.90
2018-06-11T10:24:09.697Z,15.25
2018-06-11T10:25:16.009Z,16.70
2018-06-11T10:26:22.430Z,16.10
2018-06-11T10:27:28.387Z,15.15
2018-06-11T10:28:34.893Z,14.15
2018-06-11T10:29:42.202Z,15.43
2018-06-11T10:30:48.588Z,14.30
2018-06-11T10:31:54.822Z,13.35
2018-06-11T10:33:02.015Z,12.28
2018-06-11T10:34:08.498Z,12.20
2018-06-11T10:35:16.014Z,12.58
2018-06-11T10:36:22.713Z,12.03
2018-06-11T10:37:29.007Z,13.53
2018-06-11T10:38:35.404Z,13.30
2018-06-11T10:39:41.960Z,14.70
2018-06-11T10:40:48.702Z,14.18
2018-06-11T10:41:55.048Z,13.50
2018-06-11T10:43:01.434Z,13.20
2018-06-11T10:44:07.479Z,13.55
2018-06-11T10:45:13.146Z,13.50
2018-06-11T10:46:19.058Z,15.00
2018-06-11T10:47:24.686Z,12.90
2018-06-11T10:48:31.037Z,11.70
2018-06-11T10:49:37.824Z,13.68
2018-06-11T10:50:44.201Z,13.25
2018-06-11T10:51:50.860Z,12.07
2018-06-11T10:52:57.327Z,14.15
2018-06-11T10:54:04.156Z,12.53
2018-06-11T10:55:12.277Z,12.20
2018-06-11T10:56:18.244Z,14.93
2018-06-11T10:57:25.047Z,13.80
2018-06-11T10:58:31.377Z,11.80
2018-06-11T10:59:37.337Z,12.70
2018-06-11T11:00:43.304Z,11.60
2018-06-11T11:01:49.875Z,12.47
2018-06-11T11:02:55.898Z,11.30
2018-06-11T11:04:01.937Z,12.20
2018-06-11T11:05:08.650Z,13.13
2018-06-11T11:06:14.916Z,12.50
2018-06-11T11:07:20.903Z,12.70
2018-06-11T11:08:26.918Z,12.70
2018-06-11T11:09:32.859Z,13.48
2018-06-11T11:10:42.439Z,13.40
2018-06-11T11:11:48.510Z,13.65
2018-06-11T11:12:54.515Z,12.43
2018-06-11T11:14:00.494Z,12.43
2018-06-11T11:15:06.548Z,13.05
2018-06-11T11:16:12.694Z,12.50
2018-06-11T11:17:18.662Z,13.03
2018-06-11T11:18:24.427Z,13.53
2018-06-11T11:19:30.275Z,12.98
2018-06-11T11:20:42.512Z,13.88
2018-06-11T11:21:48.499Z,12.25
2018-06-11T11:23:00.708Z,11.97
2018-06-11T11:24:06.672Z,11.73
2018-06-11T11:25:15.247Z,12.20
2018-06-11T11:26:21.404Z,12.33
2018-06-11T11:27:27.401Z,11.85
2018-06-11T11:28:33.415Z,12.35
2018-06-11T11:29:39.474Z,11.40
2018-06-11T11:30:45.936Z,11.10
2018-06-11T11:31:51.875Z,10.40
2018-06-11T11:32:57.818Z,11.53
2018-06-11T11:34:03.808Z,12.18
2018-06-11T11:35:09.772Z,11.80
2018-06-11T11:36:15.746Z,11.20
2018-06-11T11:37:21.777Z,12.80
2018-06-11T11:38:28.516Z,10.20
2018-06-11T11:39:35.177Z,12.18
2018-06-11T11:40:41.581Z,10.70
2018-06-11T11:41:48.940Z,10.40
2018-06-11T11:42:55.396Z,10.20
2018-06-11T11:44:01.674Z,11.43
2018-06-11T11:45:08.299Z,10.48
2018-06-11T11:46:15.448Z,10.10
2018-06-11T11:47:23.750Z,10.15
2018-06-11T11:48:30.670Z,9.65
2018-06-11T11:49:37.251Z,8.58
2018-06-11T11:50:46.148Z,9.03
2018-06-11T11:51:53.325Z,9.40
2018-06-11T11:53:00.327Z,8.15
2018-06-11T11:54:07.997Z,9.45
2018-06-11T11:55:14.370Z,8.15
2018-06-11T11:56:21.693Z,9.38
2018-06-11T11:57:27.618Z,9.35
2018-06-11T11:58:33.555Z,8.93
2018-06-11T11:59:40.026Z,8.05
2018-06-11T12:00:45.977Z,9.55
2018-06-11T12:01:51.978Z,9.10
2018-06-11T12:02:57.755Z,10.18
2018-06-11T12:04:04.078Z,9.75
2018-06-11T12:05:10.024Z,9.03
2018-06-11T12:06:15.935Z,8.80
2018-06-11T12:07:21.904Z,8.85
2018-06-11T12:08:27.875Z,8.50
2018-06-11T12:09:33.818Z,9.15
2018-06-11T12:10:39.882Z,8.98
2018-06-11T12:11:45.824Z,8.65
2018-06-11T12:12:51.837Z,8.45
2018-06-11T12:13:57.746Z,9.05
2018-06-11T12:15:04.046Z,7.92
2018-06-11T12:16:09.999Z,8.55
2018-06-11T12:17:15.947Z,8.30
2018-06-11T12:18:21.975Z,8.20
2018-06-11T12:19:27.983Z,7.87
2018-06-11T12:20:33.898Z,8.93
2018-06-11T12:21:39.825Z,7.58
2018-06-11T12:22:45.748Z,8.18
2018-06-11T12:23:52.331Z,7.78
2018-06-11T12:24:58.249Z,7.65
2018-06-11T12:26:04.590Z,7.33
2018-06-11T12:27:10.580Z,7.15
2018-06-11T12:28:17.151Z,7.70
2018-06-11T12:29:23.103Z,7.20
2018-06-11T12:30:30.156Z,7.42
2018-06-11T12:31:36.093Z,8.15
2018-06-11T12:32:42.227Z,7.95
2018-06-11T12:33:48.166Z,7.70
2018-06-11T12:34:54.148Z,7.15
2018-06-11T12:36:00.281Z,7.03
2018-06-11T12:37:06.521Z,7.97
2018-06-11T12:38:12.134Z,8.00
2018-06-11T12:39:17.998Z,8.40
2018-06-11T12:40:24.061Z,7.58
2018-06-11T12:41:30.052Z,8.40
2018-06-11T12:42:36.205Z,8.50
2018-06-11T12:43:42.297Z,9.35
2018-06-11T12:44:49.690Z,8.15
2018-06-11T12:45:56.176Z,7.55
2018-06-11T12:47:03.045Z,7.08
2018-06-11T12:48:09.811Z,6.22
2018-06-11T12:49:16.671Z,7.87
